Sable: Past 24 Hour Conditions

 

Cartwright Airport

04:00 PM AST 02 March 2015
Disclaimer

This table is a summary of hourly weather conditions for the past 24 hours.
Please note that these observations might not always be representative of weather conditions over their associated marine area.

Date / Time
(AST)
Wind(knots) Conditions Visibility(km) Pressure(kPa) Air tempC) Relative humidity(%) Dew pointC) Wind Chill
02 March 2015
16:00 SSW 3 Mostly Cloudy 24 100.4 -6 49 -15 -8
15:00 SW 6 Mostly Cloudy 24 100.5 -5 50 -14 -10
14:00 SW 9 Partly Cloudy 24 100.6 -6 52 -14 -12
13:00 SW 9 Mainly Sunny 24 100.7 -6 57 -13 -13
12:00 SW 9 Mainly Sunny 24 100.9 -8 61 -14 -15
11:00 SW 6 Mainly Sunny 24 101.0 -11 66 -16 -16
10:00 SW 11 Mainly Sunny 24 101.1 -13 71 -17 -21
9:00 SSW 12 Mainly Sunny 24 101.2 -14 72 -18 -24
8:00 SW 14 gust 19 Mainly Sunny 24 101.2 -16 74 -19 -26
7:00 SSW 12 Mainly Sunny 24 101.3 -15 71 -19 -25
6:00 S 10 Mainly Clear 24 101.4 -16 71 -20 -25
5:00 SSW 11 Clear 24 101.4 -15 70 -20 -25
4:00 SW 12 Clear 24 101.5 -16 69 -20 -26
3:00 SSW 11 gust 17 Clear 24 101.5 -14 63 -19 -23
2:00 SSW 10 gust 15 Mainly Clear 24 101.7 -14 63 -19 -22
1:00 SSW 7 Mostly Cloudy 24 101.8 -14 65 -20 -22
0:00 SSW 6 Mostly Cloudy 24 101.8 -15 65 -20 -21
01 March 2015
23:00 SSW 6 Mostly Cloudy 24 101.9 -15 66 -20 -22
22:00 SSW 6 Mostly Cloudy 24 101.9 -15 62 -21 -22
21:00 SW 6 Partly Cloudy 24 102.0 -16 65 -21 -22
20:00 SSW 5 Clear 24 102.0 -15 59 -22 -21
19:00 SW 7 Clear 24 102.0 -14 56 -21 -21
18:00 SSE 3 Mainly Clear 24 102.1 -14 53 -22 -18
17:00 WSW 11 Sunny 24 102.1 -13 51 -21 -21
16:00 W 12 Sunny 24 102.1 -12 45 -21 -20

Zoom-in to make a selection

Map of Atlantic - Newfoundland marine weather areas Southwestern Grand Banks - 44138 Banquereau - 44139 Tail of the Bank - 44140 Nickerson Bank - 44251 Northeast Burgeo Bank - 44255 Blanc-Sablon Airport Cap Whittle Chevery Natashquan Airport Heath Point Miscou Island Grand Étang Ingonish Beach North Mountain St.Paul Island J.A. Douglas McCurdy Sydney Airport Charlottetown Airport East Point North Cape Argentia Bonavista Burgeo Cape Race Corner Brook Daniel's Harbour Englee Ferolle Point La Scie Port aux Basques Rocky Harbour Sagona Island St. Anthony Airport St. John's Int'l Airport St. Lawrence Stephenville Airport Twillingate Winterland Wreckhouse Cartwright Airport Mary's Harbour Grates Cove Pool's Island Marticot Island Long Pond Îles de la Madeleine Airport
Legend:
buoy Buoy
land station Land Station

Atlantic - Newfoundland Area

Another Region

What we are doing

Date modified: